Tiempo atmosférico en la estación meteorológica de Jerez De Los Caballeros, Badajoz (381 m.)



Fecha
DESCASC
Temp. máxima en grados centígrados (hora)
DESCASC
Temp. mínima en grados centígrados (hora)
DESCASC
Temp. media en grados centígrados
DESCASC
Racha de viento máxima en m/sg (hora)
DESCASC
Velocidad máxima media en intervalos de 10 minutos(hora)
DESCASC
Precipitaciones diarias en mm
DESCASC
Precipitaciones de 00:00 a 06:00 en mm
DESCASC
Precipitaciones de 06:00 a 12:00 en mm
DESCASC
Precipitaciones de 12:00 a 18:00 en mm
DESCASC
Precipitaciones de 18:00 a 24:00 en mm
DESCASC
22-11-2020 18.2 (15:50) 8.2 (06:10) 13.2 9.72 (13:40) 7.5 (13:40) 0 0 0 0 0
21-11-2020 21.3 (15:20) 6.8 (08:40) 14 7.5 (06:40) 5.56 (08:00) 0 0 0 0 0
20-11-2020 21.4 (15:10) 12.5 (08:50) 16.9 11.39 (09:40) 9.44 (09:40) 0 0 0 0 0
19-11-2020 23.4 (14:20) 14.2 (00:00) 18.8 11.67 (12:00) 9.72 (12:10) 0 0 0 0 0
18-11-2020 25.8 (16:10) 9.1 (00:00) 17.4 5.83 (22:30) 4.72 (22:30) 0 0 0 0 0
17-11-2020 24 (15:40) 11 (00:00) 17.5 5.83 (05:00) 4.72 (05:00) 0 0 0 0 0
16-11-2020 22.6 (15:30) 13.2 (00:00) 17.9 8.33 (00:40) 5.83 (00:40) 0 0 0 0 0
15-11-2020 23.9 (16:00) 14 (00:00) 18.9 8.61 (13:30) 5.83 (13:40) 0 0 0 0 0
14-11-2020 20.3 (16:00) 14.5 (00:00) 17.4 9.72 (14:40) 7.22 (14:40) 1 0 1 0 0
13-11-2020 19 (15:00) 7.3 (00:00) 13.2 5.28 (15:40) 3.61 (16:00) 0 0 0 0 0
12-11-2020 19.2 (16:10) 10.1 (00:00) 14.7 8.33 (13:40) 6.39 (13:40) 0 0 0 0 0
11-11-2020 20.4 (14:30) 7.4 (00:00) 13.9 5.28 (04:30) 4.44 (18:10) 0 0 0 0 0
10-11-2020 18.9 (15:40) 7.6 (00:00) 13.2 7.78 (18:50) 5.83 (18:10) 0 0 0 0 0
09-11-2020 19.5 (15:20) 11.8 (00:00) 15.7 6.67 (17:10) 4.72 (17:10) 8.6 8.6 0 0 0
08-11-2020 19.5 (15:00) 11.5 (00:00) 15.5 11.39 (16:40) 6.94 (13:30) 0.4 0 0 0 0.4
07-11-2020 18.6 (15:00) 12 (00:00) 15.3 10.56 (13:20) 7.5 (13:20) 1.8 1.2 0.6 0 0
06-11-2020 20.6 (11:50) 12.8 (00:00) 16.7 21.94 (16:10) 14.17 (16:10) 6.4 0 0 2.8 3.6
05-11-2020 18.7 (15:40) 10.1 (00:00) 14.4 13.61 (15:10) 9.44 (20:30) 16.4 15.4 1 0 0
04-11-2020 18.7 (14:30) 9.8 (00:00) 14.3 10.28 (20:50) 6.67 (21:10) 28 0 0 0 28
03-11-2020 20.4 (16:10) 13.2 (00:00) 16.8 7.22 (19:50) 4.44 (19:50) 0.2 0.2 0 0 0
02-11-2020 20.6 (15:00) 11.2 (00:00) 15.9 5 (22:40) 3.33 (22:40) 0 0 0 0 0
01-11-2020 24.5 (16:20) 10 (00:00) 17.3 6.11 (19:00) 4.44 (19:00) 0 0 0 0 0
31-10-2020 25.6 (15:40) 10.1 (00:00) 17.9 6.39 (17:00) 5 (17:30) 0 0 0 0 0
30-10-2020 26.4 (15:40) 10.1 (00:00) 18.3 4.17 (11:40) 3.33 (11:40) 0 0 0 0 0
29-10-2020 25.5 (16:50) 12 (00:00) 18.8 9.17 (11:00) 7.22 (11:00) 0 0 0 0 0
28-10-2020 21.6 (15:00) 7.1 (00:00) 14.4 6.39 (19:10) 4.72 (19:10) 0 0 0 0 0
27-10-2020 17.7 (15:40) 4.8 (00:00) 11.3 7.78 (15:20) 5.83 (16:20) 0 0 0 0 0

Gráficas

Temp. máximas Temp. mínimas Temp. medias Precipitaciones Rachas de viento máximas Velocidades máximas media en intervalos de 10 minutos

Datos horarios

Fecha y hora oficial Temperatura (ºC) Velocidad del viento (km/h) Dirección del viento Racha (km/h) Dirección de racha Precipitación (mm) Presión (hPa) Tendencia (hPa) Humedad (%)
2020-11-25 23:00:00 9.8 19 Sudoeste 28 Sudoeste 3.8 964.5 0.6 88
2020-11-25 22:00:00 11.3 8 Sudeste 34 Este 4.2 964.3 -0.1 85
2020-11-25 21:00:00 12.3 18 Sudeste 28 Sudeste 0 964.1 -0.3 83
2020-11-25 20:00:00 12.3 10 Sudeste 21 Sudeste 0 963.9 -0.4 82
2020-11-25 19:00:00 12.6 4 Sudeste 19 Sudeste 0 964.4 0.2 84
2020-11-25 18:00:00 13 6 Sudeste 23 Sur 0 964.4 -0.4 83
2020-11-25 17:00:00 13.3 7 Sur 27 Sur 0 964.3 -1.1 82
2020-11-25 16:00:00 13.6 11 Sur 28 Sudoeste 0 964.2 -2.4 80
2020-11-25 15:00:00 13.6 7 Sur 32 Sur 0 964.8 -3.4 78
2020-11-25 14:00:00 13.9 15 Sur 28 Sur 0 965.4 -3.8 74
2020-11-25 13:00:00 13.4 8 Este 17 Sudoeste 0 966.6 -- 81
2020-11-25 12:00:00 12.1 8 Este 16 Sudeste 3 968.2 -- 91
2020-11-25 11:00:00 11.4 5 Sudoeste 33 Sudoeste 7.8 969.2 -- 90
2020-11-25 10:00:00 12.3 5 Sur 14 Sudoeste 1.4 969.3 -- 84
2020-11-25 09:00:00 11.8 8 Nordeste 14 Nordeste 0 969.1 -- 83
2020-11-25 08:00:00 9.8 8 Este 15 Nordeste 0 969.5 -- 87
2020-11-25 07:00:00 10.4 4 Nordeste 10 Este 0 970.2 -- 84
2020-11-25 06:00:00 8.9 6 Nordeste 14 Nordeste 0 970.7 -- 92
2020-11-25 05:00:00 7.1 8 Este 10 Este 0 971.4 -- 92
2020-11-25 04:00:00 6.2 8 Este 10 Este 0 972.4 -- 92
2020-11-25 03:00:00 8.6 3 Este 6 Este 0 972.9 -- 92
2020-11-25 02:00:00 9.1 0 Calma 5 Este 0 973.4 -- 91
2020-11-25 01:00:00 8.6 4 Este 7 Este 0 974.1 -- 91
2020-11-25 00:00:00 10 5 Oeste 6 Oeste 0 974.6 -- 85
2020-11-24 23:00:00 10.8 2 Sudoeste 6 Sudoeste 0 975 -- 82
2020-11-24 22:00:00 11.4 3 Sudeste 7 Este 0 975.2 -- 79
2020-11-24 21:00:00 12.4 3 Nordeste 4 Este 0 975.3 -- 76
2020-11-24 20:00:00 13.3 2 Este 8 Sudeste 0 975.6 -- 69
2020-11-24 19:00:00 13.6 8 Sudeste 10 Oeste 0 975.6 -- 68
2020-11-24 18:00:00 14.2 5 Oeste 6 Oeste 0 975.6 -- 62
2020-11-24 17:00:00 15.1 2 Noroeste 8 Sudoeste 0 975.7 -- 58
2020-11-24 16:00:00 15.6 7 Oeste 14 Sudoeste 0 975.9 -- 61
2020-11-24 15:00:00 15.3 9 Sudoeste 15 Sudoeste 0 976.5 -- 59
2020-11-24 14:00:00 15.7 9 Sudoeste 18 Sudoeste 0 977.3 -- 59
2020-11-24 13:00:00 14.7 5 Este 9 Este 0 978.2 -- 69
2020-11-24 12:00:00 12 2 Nordeste 8 Este 0 979.4 -- 78
2020-11-24 11:00:00 9.1 3 Este 8 Este 0 979.8 -- 86
2020-11-24 10:00:00 6.7 2 Sudeste 5 Este 0 979.8 -- 93
2020-11-24 09:00:00 4.7 4 Este 8 Nordeste 0 979.6 -- 93
2020-11-24 08:00:00 4 5 Este 7 Este 0 979.3 -- 92
2020-11-24 07:00:00 3.8 3 Este 5 Sudeste 0 979 -- 92
2020-11-24 06:00:00 4.9 0 Calma 8 Este 0 978.7 -- 91
2020-11-24 05:00:00 5 5 Este 10 Este 0 978.8 -- 91
2020-11-24 04:00:00 5.3 5 Este 8 Este 0 979 -- 90
2020-11-24 03:00:00 6.3 5 Este 8 Este 0 979.4 -- 91
2020-11-24 02:00:00 7 2 Sudeste 6 Este 0 979.8 -- 87
2020-11-24 01:00:00 7.2 4 Sudoeste 7 Sudoeste 0 980.2 -- 86
2020-11-24 00:00:00 8.2 3 Sur 9 Nordeste 0 980.2 -- 84
2020-11-23 23:00:00 9.1 0 Calma 4 Sudeste 0 980.6 -- 81
2020-11-23 22:00:00 10.6 2 Este 5 Este 0 980.6 -- 74
2020-11-23 21:00:00 12 3 Este 6 Nordeste 0 980.6 -- 71
2020-11-23 20:00:00 12.1 6 Este 12 Sudoeste 0 980.4 -- 71
2020-11-23 19:00:00 14 8 Sur 12 Sudoeste 0 980 -- 61
2020-11-23 18:00:00 16 5 Sudeste 8 Sudeste 0 979.8 -- 52
2020-11-23 17:00:00 17.6 5 Este 10 Sudeste 0 979.7 -- 41
2020-11-23 16:00:00 18.1 7 Este 10 Sudeste 0 979.7 -- 46
2020-11-23 15:00:00 18.2 6 Este 9 Este 0 980.1 -- 45
2020-11-23 14:00:00 18.4 3 Sudoeste 10 Sudoeste 0 980.7 -- 48
2020-11-23 13:00:00 16.5 4 Sudeste 10 Este 0 981.5 -- 60
2020-11-23 12:00:00 13.7 6 Sudeste 10 Sudeste 0 982.3 -- 74
2020-11-23 11:00:00 10.3 4 Nordeste 10 Este 0 982.5 -- 83
2020-11-23 10:00:00 7.5 7 Este 9 Este 0 982.3 -- 90
2020-11-23 09:00:00 5.8 3 Sudeste 9 Sudeste 0 981.9 -- 92
2020-11-23 08:00:00 4.6 8 Sudeste 11 Este 0 981.3 -- 92
2020-11-23 07:00:00 5.5 9 Sudeste 12 Este 0 981 -- 92
2020-11-23 06:00:00 5.6 11 Este 18 Este 0 980.8 -- 92
2020-11-23 05:00:00 5.8 9 Este 15 Este 0 980.9 -- 90
2020-11-23 04:00:00 6.5 12 Este 14 Este 0 981.2 -- 91
2020-11-23 03:00:00 7.1 7 Este 13 Este 0 981.3 -- 90
2020-11-23 02:00:00 7.3 4 Sudeste 8 Este 0 981.6 -- 89
2020-11-23 01:00:00 7.5 6 Este 9 Este 0 981.8 -- 89
2020-11-23 00:00:00 8.2 5 Sudeste 6 Sudeste 0 981.9 -- 84
2020-11-22 23:00:00 9.7 4 Este 8 Este 0 982.1 -- 80
2020-11-22 22:00:00 10.7 4 Sudeste 8 Oeste 0 982.1 -- 75
2020-11-22 21:00:00 12.2 3 Noroeste 10 Este 0 981.6 -- 67
2020-11-22 20:00:00 13.5 5 Sudeste 13 Nordeste 0 981.2 -- 61
2020-11-22 19:00:00 14.7 14 Nordeste 16 Nordeste 0 980.7 -- 54
2020-11-22 18:00:00 16.4 6 Nordeste 13 Este 0 980.6 -- 53
2020-11-22 17:00:00 17.6 10 Este 21 Este 0 980.4 -- 49
2020-11-22 16:00:00 18.1 19 Este 26 Este 0 980.3 -- 46
2020-11-22 15:00:00 17.9 21 Este 34 Este 0 980.6 -- 47
2020-11-22 14:00:00 17.5 23 Este 35 Nordeste 0 981.1 -- 51
2020-11-22 13:00:00 16.8 25 Este 33 Este 0 981.9 -- 53
2020-11-22 12:00:00 15.3 23 Nordeste 29 Nordeste 0 982.5 -- 62
2020-11-22 11:00:00 13.8 18 Nordeste 27 Nordeste 0 982.8 -- 68
2020-11-22 10:00:00 12.5 14 Este 22 Este 0 982.6 -- 74
2020-11-22 09:00:00 9.8 14 Este 21 Este 0 982.3 -- 84
2020-11-22 08:00:00 8.9 11 Este 18 Nordeste 0 982.1 -- 85
2020-11-22 07:00:00 8.6 12 Este 16 Este 0 981.7 -- 86
2020-11-22 06:00:00 8.3 9 Este 20 Este 0 981.5 -- 86
2020-11-22 05:00:00 -- -- -- -- -- -- -- -- --
2020-11-22 04:00:00 -- -- -- -- -- -- -- -- --
2020-11-22 03:00:00 -- -- -- -- -- -- -- -- --
2020-11-22 02:00:00 -- -- -- -- -- -- -- -- --
2020-11-22 01:00:00 11.8 10 Nordeste 15 Nordeste 0 981.3 -- 78
2020-11-22 00:00:00 11.8 9 Este 13 Nordeste 0 981.2 -- 80
2020-11-21 23:00:00 12.4 11 Nordeste 15 Este 0 981.2 -- 80
2020-11-21 22:00:00 14 9 Este 12 Nordeste 0 980.7 -- 72
2020-11-21 21:00:00 14.8 6 Este 15 Este 0 980.7 -- 70
2020-11-21 20:00:00 15.4 8 Este 13 Este 0 980.3 -- 67
2020-11-21 19:00:00 16.3 5 Este 12 Este 0 980 -- 64
2020-11-21 18:00:00 18.7 4 Nordeste 6 Nordeste 0 979.4 -- 50
2020-11-21 17:00:00 19.8 4 Nordeste 14 Este 0 979.1 -- 50
2020-11-21 16:00:00 20.6 6 Este 8 Este 0 978.9 -- 48
2020-11-21 15:00:00 20.9 3 Sudeste 11 Este 0 979 -- 47
2020-11-21 14:00:00 19.7 7 Sudeste 11 Sudeste 0 979.5 -- 52
2020-11-21 13:00:00 18.1 10 Este 15 Este 0 980.2 -- 53
2020-11-21 12:00:00 16.8 11 Este 16 Este 0 980.8 -- 57
2020-11-21 11:00:00 14.9 10 Este 14 Este 0 980.9 -- 56
2020-11-21 10:00:00 10.3 8 Este 13 Este 0 981 -- 66
2020-11-21 09:00:00 8.6 12 Nordeste 21 Este 0 980.1 -- 63
2020-11-21 08:00:00 8.4 20 Nordeste 24 Nordeste 0 979.7 -- 59
2020-11-21 07:00:00 9.5 20 Este 27 Nordeste 0 979.5 -- 55
2020-11-21 06:00:00 10 18 Este 23 Este 0 979.2 -- 53
2020-11-21 05:00:00 10.1 13 Este 25 Nordeste 0 979.2 -- 57
2020-11-21 04:00:00 9.1 16 Este 25 Nordeste 0 979.4 -- 70
2020-11-21 03:00:00 9.7 10 Este 18 Este 0 979.5 -- 73
2020-11-21 02:00:00 10.2 13 Este 18 Este 0 979.7 -- 69
2020-11-21 01:00:00 10.8 12 Este 14 Este 0 980.4 -- 68
2020-11-21 00:00:00 12.8 9 Nordeste 19 Nordeste 0 980.6 -- 59
2020-11-20 23:00:00 13.1 12 Este 23 Nordeste 0 980.5 -- 59
2020-11-20 22:00:00 13.8 19 Este 24 Nordeste 0 980.2 -- 58
2020-11-20 21:00:00 14.8 14 Este 21 Nordeste 0 980.1 -- 56
2020-11-20 20:00:00 15.9 11 Este 24 Nordeste 0 980.3 -- 53
2020-11-20 19:00:00 17.1 12 Nordeste 31 Nordeste 0 980.5 -- 49
2020-11-20 18:00:00 18.6 22 Nordeste 37 Nordeste 0 980.2 -- 47
2020-11-20 17:00:00 20 24 Nordeste 39 Nordeste 0 980.1 -- 44
2020-11-20 16:00:00 20.6 23 Nordeste 33 Este 0 980.1 -- 49
2020-11-20 15:00:00 21.3 28 Este 41 Este 0 980.3 -- 39
2020-11-20 14:00:00 21.1 29 Este 37 Este 0 980.9 -- 37
2020-11-20 13:00:00 20 26 Este 34 Nordeste 0 982.1 -- 49
2020-11-20 12:00:00 18.2 26 Este 34 Este 0 983 -- 61
2020-11-20 11:00:00 16.6 30 Nordeste 39 Nordeste 0 983.1 -- 64
2020-11-20 10:00:00 15.6 32 Nordeste 41 Nordeste 0 982.7 -- 66
2020-11-20 09:00:00 13.3 18 Este 28 Nordeste 0 982.8 -- 77
2020-11-20 08:00:00 13.2 17 Nordeste 24 Nordeste 0 982.8 -- 74
2020-11-20 07:00:00 14 20 Nordeste 28 Nordeste 0 982.6 -- 73
2020-11-20 06:00:00 13.7 19 Nordeste 25 Nordeste 0 982.6 -- 75
2020-11-20 05:00:00 13.3 18 Nordeste 24 Este 0 982.9 -- 78
2020-11-20 04:00:00 13.5 18 Este 21 Nordeste 0 983 -- 78
2020-11-20 03:00:00 13.5 13 Nordeste 19 Este 0 983.2 -- 78
2020-11-20 02:00:00 13.7 9 Nordeste 14 Este 0 983.7 -- 78
2020-11-20 01:00:00 14 10 Este 14 Este 0 984.3 -- 77
2020-11-20 00:00:00 15.6 9 Este 14 Este 0 984.4 -- 70
2020-11-19 23:00:00 15.7 9 Este 16 Este 0 984.5 -- 71
2020-11-19 22:00:00 16.6 9 Sudeste 19 Este 0 984.5 -- 68
2020-11-19 21:00:00 17 12 Este 32 Nordeste 0 984.7 -- 67
2020-11-19 20:00:00 19.8 21 Norte 33 Norte 0 984.6 -- 52
2020-11-19 19:00:00 19.5 17 Nordeste 26 Nordeste 0 984.5 -- 55
2020-11-19 18:00:00 20.9 12 Nordeste 27 Nordeste 0 983.8 -- 49
2020-11-19 17:00:00 22.3 19 Nordeste 28 Nordeste 0 983.5 -- 46
2020-11-19 16:00:00 22.5 20 Este 32 Nordeste 0 983.8 -- 49
2020-11-19 15:00:00 22.8 24 Nordeste 35 Nordeste 0 983.9 -- 44
2020-11-19 14:00:00 23.2 21 Nordeste 29 Nordeste 0 983.9 -- 45
2020-11-19 13:00:00 21.7 21 Nordeste 41 Nordeste 0 984.3 -- 54
2020-11-19 12:00:00 20.3 30 Nordeste 42 Nordeste 0 984.2 -- 54
2020-11-19 11:00:00 18 27 Este 33 Este 0 984.4 -- 68
2020-11-19 10:00:00 16.7 22 Este 31 Este 0 984.2 -- 67
2020-11-19 09:00:00 15.2 12 Este 21 Este 0 983.4 -- 71
2020-11-19 08:00:00 14.2 16 Este 24 Este 0 982.5 -- 75
2020-11-19 07:00:00 14.5 16 Este 29 Nordeste 0 982 -- 76
2020-11-19 06:00:00 14.8 15 Este 25 Este 0 981.7 -- 76
2020-11-19 05:00:00 15.1 15 Este 22 Este 0 981.5 -- 75
2020-11-19 04:00:00 15.1 13 Este 19 Este 0 981.6 -- 78
2020-11-19 03:00:00 15.8 13 Nordeste 20 Nordeste 0 981.5 -- 77
2020-11-19 02:00:00 16.1 12 Nordeste 19 Nordeste 0 981.5 -- 80
2020-11-19 01:00:00 15.5 13 Nordeste 19 Este 0 981.7 -- 84
2020-11-19 00:00:00 15.7 13 Nordeste 18 Nordeste 0 982 -- 83
2020-11-18 23:00:00 15.8 14 Este 21 Nordeste 0 982.1 -- 82
2020-11-18 22:00:00 16.8 13 Este 16 Este 0 981.9 -- 75
2020-11-18 21:00:00 17.3 8 Este 14 Este 0 981.5 -- 73
2020-11-18 20:00:00 18.6 6 Este 13 Sudeste 0 981.2 -- 67
2020-11-18 19:00:00 19.8 7 Este 13 Norte 0 981 -- 59
2020-11-18 18:00:00 21.7 5 Oeste 13 Oeste 0 980.7 -- 54
2020-11-18 17:00:00 23.7 9 Oeste 16 Oeste 0 980.4 -- 48
2020-11-18 16:00:00 25.6 4 Sur 8 Sudoeste 0 980.3 -- 45
2020-11-18 15:00:00 24.1 6 Este 10 Este 0 980.2 -- 52
2020-11-18 14:00:00 23.5 3 Este 8 Sudeste 0 980.7 -- 53
2020-11-18 13:00:00 21 5 Este 11 Este 0 981.3 -- 60
2020-11-18 12:00:00 18.1 8 Este 12 Este 0 981.8 -- 73
2020-11-18 11:00:00 15 6 Este 10 Este 0 982.2 -- 84
2020-11-18 10:00:00 11.7 4 Sudoeste 8 Sudeste 0 982.1 -- 93
2020-11-18 09:00:00 9.4 7 Este 10 Sudeste 0 981.8 -- 93
2020-11-18 08:00:00 9.2 4 Sudeste 7 Sudoeste 0 981.6 -- 93
2020-11-18 07:00:00 9.5 3 Sur 8 Este 0 981.3 -- 93
2020-11-18 06:00:00 9.7 5 Sudeste 9 Este 0 981.2 -- 93
2020-11-18 05:00:00 10.6 7 Este 9 Este 0 981.1 -- 93
2020-11-18 04:00:00 10.5 4 Este 5 Sudeste 0 981.2 -- 92
2020-11-18 03:00:00 11.7 3 Sur 5 Sudoeste 0 981.3 -- 92
2020-11-18 02:00:00 12.1 0 Calma 9 Este 0 981.6 -- 92
2020-11-18 01:00:00 13.4 3 Sudoeste 5 Sudoeste 0 981.8 -- 92
2020-11-18 00:00:00 14.1 5 Sudoeste 6 Sudoeste 0 981.9 -- 91
2020-11-17 23:00:00 15 3 Sudeste 8 Sudoeste 0 982 -- 88
2020-11-17 22:00:00 16.3 3 Sudeste 6 Este 0 982 -- 84
2020-11-17 21:00:00 17.8 0 Calma 4 Sudoeste 0 981.7 -- 78
2020-11-17 20:00:00 18.7 2 Sudoeste 9 Sudoeste 0 981.6 -- 75
2020-11-17 19:00:00 19.9 6 Sudoeste 10 Sudoeste 0 981.1 -- 70
2020-11-17 18:00:00 21.5 8 Sudoeste 14 Sudoeste 0 980.8 -- 66
2020-11-17 17:00:00 23.6 8 Sudoeste 18 Sudoeste 0 980.6 -- 63
2020-11-17 16:00:00 23.9 8 Sudoeste 12 Sudoeste 0 980.5 -- 62
2020-11-17 15:00:00 23.5 5 Sudoeste 8 Sudoeste 0 980.6 -- 61
2020-11-17 14:00:00 21.4 4 Sudeste 6 Sudeste 0 980.9 -- 73
2020-11-17 13:00:00 18.1 3 Este 7 Este 0 981.5 -- 93
2020-11-17 12:00:00 15.7 4 Sudeste 10 Este 0 982 -- 94
2020-11-17 11:00:00 12.6 7 Este 11 Este 0 982.3 -- 94
2020-11-17 10:00:00 11.6 6 Este 13 Este 0 982 -- 94
2020-11-17 09:00:00 11 10 Este 14 Este 0 981.4 -- 94
2020-11-17 08:00:00 11.3 11 Este 14 Este 0 981 -- 94
2020-11-17 07:00:00 11.7 10 Este 14 Este 0 980.6 -- 94
2020-11-17 06:00:00 12.5 6 Este 19 Este 0 980.5 -- 93
2020-11-17 05:00:00 12.7 17 Este 21 Este 0 980.3 -- 93
2020-11-17 04:00:00 13.3 13 Este 17 Este 0 980.5 -- 93
2020-11-17 03:00:00 13.5 15 Este 17 Este 0 980.6 -- 93
2020-11-17 02:00:00 13.3 10 Este 13 Este 0 980.8 -- 93
2020-11-17 01:00:00 12.8 4 Sudeste 10 Este 0 981.1 -- 92
2020-11-17 00:00:00 13.8 9 Este 12 Este 0 981 -- 92
2020-11-16 23:00:00 13.5 7 Este 9 Este 0 981.2 -- 91
2020-11-16 22:00:00 14.2 4 Este 8 Sudeste 0 980.9 -- 90
2020-11-16 21:00:00 15.2 7 Este 8 Este 0 980.6 -- 88
2020-11-16 20:00:00 16.2 4 Norte 13 Noroeste 0 980.4 -- 84
2020-11-16 19:00:00 17.3 11 Noroeste 16 Noroeste 0 979.8 -- 80
2020-11-16 18:00:00 18.7 10 Oeste 17 Oeste 0 979.5 -- 77
2020-11-16 17:00:00 20.4 13 Oeste 21 Sudoeste 0 979.3 -- 70
2020-11-16 16:00:00 22.2 10 Sudoeste 18 Sudoeste 0 979.3 -- 63
2020-11-16 15:00:00 21.9 8 Sudoeste 16 Sudoeste 0 979.3 -- 64
2020-11-16 14:00:00 21.6 6 Sudoeste 12 Sudoeste 0 979.6 -- 62
2020-11-16 13:00:00 20 4 Este 15 Sudeste 0 980.4 -- 71
2020-11-16 12:00:00 19.3 6 Este 11 Este 0 980.6 -- 78
2020-11-16 11:00:00 17.1 2 Sur 6 Sudoeste 0 980.5 -- 90
2020-11-16 10:00:00 15.6 4 Sudoeste 6 Sudoeste 0 980.2 -- 92
2020-11-16 09:00:00 15.2 3 Sudeste 8 Sur 0 979.4 -- 91
2020-11-16 08:00:00 15.1 2 Norte 6 Sudeste 0 979.2 -- 91
2020-11-16 07:00:00 15.9 3 Oeste 14 Oeste 0 978.9 -- 90
2020-11-16 06:00:00 15.5 4 Oeste 9 Noroeste 0 978.6 -- 88
2020-11-16 05:00:00 16.4 4 Noroeste 9 Norte 0 978.1 -- 87
2020-11-16 04:00:00 16 4 Noroeste 6 Noroeste 0 978.2 -- 85
2020-11-16 03:00:00 15.8 3 Sudeste 5 Sudeste 0 978.3 -- 85
2020-11-16 02:00:00 15.1 0 Calma 14 Sudoeste 0 978.9 -- 87
2020-11-16 01:00:00 16.6 10 Sudoeste 30 Oeste 0 978.9 -- 82
2020-11-16 00:00:00 15.7 12 Oeste 20 Oeste 0 978.3 -- 83
2020-11-15 23:00:00 17.3 6 Sudoeste 8 Sudoeste 0 977.9 -- 75
2020-11-15 22:00:00 17.8 3 Oeste 10 Sudoeste 0 977.8 -- 74
2020-11-15 21:00:00 18.2 9 Oeste 11 Oeste 0 977.6 -- 73
2020-11-15 20:00:00 18.9 5 Oeste 12 Sudoeste 0 977.1 -- 70
2020-11-15 19:00:00 19.9 8 Sur 15 Sudoeste 0 976.7 -- 65
2020-11-15 18:00:00 20.5 10 Sudoeste 27 Sudoeste 0 976.6 -- 64
2020-11-15 17:00:00 22.4 15 Sudoeste 30 Sudoeste 0 976.2 -- 57
2020-11-15 16:00:00 23.8 14 Sudoeste 26 Sudoeste 0 976.2 -- 53
2020-11-15 15:00:00 23.3 21 Sudoeste 30 Sur 0 976.2 -- 55
2020-11-15 14:00:00 22.9 18 Sudoeste 31 Sudoeste 0 976.5 -- 58
2020-11-15 13:00:00 22 11 Sudoeste 22 Sudoeste 0 977 -- 63
2020-11-15 12:00:00 20.3 0 Calma 7 Este 0 977.9 -- 73
2020-11-15 11:00:00 18.8 5 Este 8 Este 0 978 -- 80
2020-11-15 10:00:00 17.6 7 Este 12 Nordeste 0 977.6 -- 80
2020-11-15 09:00:00 15.9 4 Nordeste 13 Nordeste 0 977.1 -- 87
2020-11-15 08:00:00 15.1 6 Este 12 Nordeste 0 976.7 -- 87
2020-11-15 07:00:00 15.1 8 Nordeste 13 Nordeste 0 976.3 -- 89
2020-11-15 06:00:00 14.9 6 Este 9 Este 0 976.3 -- 89
2020-11-15 05:00:00 14.7 5 Nordeste 8 Sudeste 0 976.4 -- 91
2020-11-15 04:00:00 14.9 2 Noroeste 6 Este 0 976.9 -- 88
2020-11-15 03:00:00 15.6 5 Nordeste 8 Nordeste 0 976.8 -- 87
2020-11-15 02:00:00 15.3 5 Este 9 Este 0 976.9 -- 89
2020-11-15 01:00:00 15.5 4 Este 7 Nordeste 0 977.1 -- 88
2020-11-15 00:00:00 16.1 3 Nordeste 9 Nordeste 0 977.1 -- 88
2020-11-14 23:00:00 16 4 Nordeste 8 Sudeste 0 977.5 -- 90
2020-11-14 22:00:00 16.2 3 Sudeste 5 Este 0 977.4 -- 89
2020-11-14 21:00:00 16.3 2 Noroeste 6 Sudoeste 0 977.2 -- 90
2020-11-14 20:00:00 16.4 5 Sudoeste 15 Sudoeste 0 977.1 -- 89
2020-11-14 19:00:00 16.5 13 Sudoeste 19 Sudoeste 0 976.8 -- 88
2020-11-14 18:00:00 17.5 10 Oeste 19 Oeste 0 976.3 -- 81
2020-11-14 17:00:00 18.7 15 Sudoeste 27 Sudoeste 0 975.8 -- 73
2020-11-14 16:00:00 19.4 17 Oeste 32 Sudoeste 0 975.4 -- 72
2020-11-14 15:00:00 19.6 24 Sudoeste 35 Sudoeste 0 975.3 -- 71
2020-11-14 14:00:00 19.6 21 Sudoeste 35 Sudoeste 0 975.3 -- 74
2020-11-14 13:00:00 17.5 21 Sudoeste 28 Sudoeste 0 975.8 -- 88
2020-11-14 12:00:00 16.4 15 Sudoeste 23 Sudoeste 0.4 976.2 -- 91
2020-11-14 11:00:00 15.9 10 Sudoeste 13 Sudoeste 0 976 -- 90
2020-11-14 10:00:00 15.5 5 Oeste 8 Oeste 0.6 975.7 -- 87
2020-11-14 09:00:00 15.6 3 Sur 9 Sur 0 975.3 -- 85
2020-11-14 08:00:00 15.4 3 Sur 10 Sudoeste 0 974.7 -- 84
2020-11-14 07:00:00 15.2 5 Este 12 Este 0 974.3 -- 85
2020-11-14 06:00:00 15.3 8 Nordeste 9 Nordeste 0 974 -- 85
2020-11-14 05:00:00 15.1 8 Nordeste 11 Este 0 974 -- 85
2020-11-14 04:00:00 14.9 8 Este 12 Este 0 974.2 -- 85
2020-11-14 03:00:00 14.7 6 Este 8 Sudeste 0 974.7 -- 85
2020-11-14 02:00:00 15 3 Este 11 Nordeste 0 974.9 -- 84
2020-11-14 01:00:00 14.9 6 Este 9 Sudeste 0 975.5 -- 83
2020-11-14 00:00:00 15.6 5 Este 8 Este 0 975.8 -- 79
2020-11-13 23:00:00 15.5 5 Nordeste 7 Este 0 975.7 -- 79
2020-11-13 22:00:00 15.7 4 Nordeste 7 Nordeste 0 975.4 -- 78
2020-11-13 21:00:00 16 6 Nordeste 7 Nordeste 0 975.2 -- 78
2020-11-13 20:00:00 16.2 5 Nordeste 9 Este 0 975 -- 77
2020-11-13 19:00:00 17 5 Este 13 Sur 0 974.6 -- 72
2020-11-13 18:00:00 17.6 9 Sur 17 Sur 0 974.3 -- 67
2020-11-13 17:00:00 18.1 6 Sur 19 Sudoeste 0 974.2 -- 64
2020-11-13 16:00:00 18.6 13 Sur 19 Sur 0 974.1 -- 61
2020-11-13 15:00:00 18.9 8 Sur 13 Sudeste 0 974.4 -- 61
2020-11-13 14:00:00 18.2 4 Sudeste 18 Este 0 974.8 -- 64
2020-11-13 13:00:00 18.2 8 Este 14 Este 0 975.4 -- 66
2020-11-13 12:00:00 15.9 7 Nordeste 10 Este 0 976.1 -- 74
2020-11-13 11:00:00 13.4 4 Sudeste 13 Este 0 976.2 -- 80
2020-11-13 10:00:00 11.6 6 Este 10 Este 0 976.1 -- 86
2020-11-13 09:00:00 8.8 4 Sudeste 7 Sudeste 0 975.4 -- 90
2020-11-13 08:00:00 8.2 3 Sudeste 8 Este 0 974.9 -- 89
2020-11-13 07:00:00 8.6 8 Este 13 Este 0 974.5 -- 90
2020-11-13 06:00:00 7.5 7 Sudeste 9 Sudeste 0 974.5 -- 90
2020-11-13 05:00:00 7.8 3 Sudeste 9 Este 0 974.4 -- 89
2020-11-13 04:00:00 7.8 3 Noroeste 8 Este 0 974.5 -- 89
2020-11-13 03:00:00 8.7 3 Noroeste 14 Este 0 974.7 -- 88
2020-11-13 02:00:00 9.2 2 Sudeste 6 Este 0 974.8 -- 86
2020-11-13 01:00:00 9 3 Nordeste 6 Sudeste 0 974.9 -- 84
2020-11-13 00:00:00 10.9 3 Sur 6 Sudoeste 0 975.1 -- 79
2020-11-12 23:00:00 11.2 4 Sudoeste 6 Sudoeste 0 975 -- 78
2020-11-12 22:00:00 12.7 2 Sudoeste 9 Sudoeste 0 974.9 -- 71
2020-11-12 21:00:00 14.1 4 Nordeste 10 Este 0 974.6 -- 64
2020-11-12 20:00:00 15.3 6 Nordeste 11 Nordeste 0 974.4 -- 59
2020-11-12 19:00:00 16.2 8 Nordeste 9 Nordeste 0 974.2 -- 54
2020-11-12 18:00:00 17.5 3 Este 17 Este 0 974.1 -- 52
2020-11-12 17:00:00 18.5 14 Este 23 Este 0 973.9 -- 51
2020-11-12 16:00:00 19.1 9 Este 24 Este 0 973.8 -- 52
2020-11-12 15:00:00 18.6 19 Este 27 Nordeste 0 974 -- 51
2020-11-12 14:00:00 17.7 21 Nordeste 30 Este 0 974.6 -- 61
2020-11-12 13:00:00 16.5 22 Nordeste 27 Nordeste 0 975.3 -- 68
2020-11-12 12:00:00 15.7 15 Nordeste 22 Nordeste 0 976.4 -- 70
2020-11-12 11:00:00 15 17 Nordeste 22 Nordeste 0 976.4 -- 72
2020-11-12 10:00:00 11.7 12 Nordeste 17 Nordeste 0 976.6 -- 86
2020-11-12 09:00:00 12.3 6 Este 16 Nordeste 0 976.6 -- 81
2020-11-12 08:00:00 11.1 9 Este 18 Este 0 976.4 -- 81
2020-11-12 07:00:00 12.1 8 Este 20 Nordeste 0 976.1 -- 78
2020-11-12 06:00:00 11.6 14 Este 21 Nordeste 0 976.3 -- 83
2020-11-12 05:00:00 10.8 8 Este 17 Este 0 976.4 -- 85
2020-11-12 04:00:00 11 8 Este 13 Este 0 976.9 -- 86
2020-11-12 03:00:00 12.5 10 Este 18 Nordeste 0 977.3 -- 79
2020-11-12 02:00:00 11.7 13 Este 21 Este 0 977.7 -- 83
2020-11-12 01:00:00 11.4 11 Este 13 Este 0 978.3 -- 85
2020-11-12 00:00:00 11.3 6 Sudeste 11 Sudeste 0 978.3 -- 83
2020-11-11 23:00:00 13.9 5 Nordeste 12 Este 0 978.1 -- 71
2020-11-11 22:00:00 14.3 8 Este 15 Nordeste 0 978 -- 70
2020-11-11 21:00:00 13.7 10 Este 13 Este 0 977.3 -- 74
2020-11-11 20:00:00 15.5 8 Nordeste 13 Nordeste 0 977.9 -- 64
2020-11-11 19:00:00 16 11 Nordeste 19 Nordeste 0 977.4 -- 63
2020-11-11 18:00:00 17.1 14 Nordeste 17 Nordeste 0 977.2 -- 59
2020-11-11 17:00:00 18.4 14 Este 18 Nordeste 0 977 -- 58
2020-11-11 16:00:00 19.4 12 Nordeste 15 Nordeste 0 976.8 -- 45
2020-11-11 15:00:00 19.6 9 Norte 15 Nordeste 0 977.2 -- 49
2020-11-11 14:00:00 20.1 4 Nordeste 15 Este 0 977.6 -- 52
2020-11-11 13:00:00 19 11 Nordeste 19 Nordeste 0 978.1 -- 59
2020-11-11 12:00:00 17.5 10 Este 16 Este 0 978.6 -- 67
2020-11-11 11:00:00 16.5 8 Este 17 Este 0 979 -- 73
2020-11-11 10:00:00 13 11 Este 17 Nordeste 0 979 -- 81
2020-11-11 09:00:00 10.6 8 Este 17 Nordeste 0 978.9 -- 81
2020-11-11 08:00:00 9 13 Nordeste 16 Nordeste 0 978.8 -- 86
2020-11-11 07:00:00 8.3 6 Nordeste 13 Sudeste 0 978.9 -- 90
2020-11-11 06:00:00 8.3 6 Sudeste 13 Este 0 978.9 -- 87
2020-11-11 05:00:00 9.8 8 Este 19 Este 0 978.8 -- 84
2020-11-11 04:00:00 9.2 10 Este 13 Este 0 979.2 -- 89
2020-11-11 03:00:00 9.4 2 Sudoeste 13 Este 0 979.9 -- 91
2020-11-11 02:00:00 9.5 11 Este 13 Nordeste 0 980 -- 90
2020-11-11 01:00:00 10 8 Este 13 Nordeste 0 980.4 -- 91
2020-11-11 00:00:00 10.8 9 Este 12 Este 0 980.5 -- 88
2020-11-10 23:00:00 13.1 8 Nordeste 18 Nordeste 0 980.6 -- 82
2020-11-10 22:00:00 13.3 17 Nordeste 19 Nordeste 0 980.2 -- 83
2020-11-10 21:00:00 13.6 12 Este 19 Este 0 980.4 -- 83
2020-11-10 20:00:00 14.9 15 Este 22 Este 0 980.1 -- 77
2020-11-10 19:00:00 15.6 14 Nordeste 28 Nordeste 0 980 -- 73
2020-11-10 18:00:00 16.8 17 Nordeste 24 Nordeste 0 979.7 -- 68
2020-11-10 17:00:00 17.9 18 Nordeste 24 Nordeste 0 979.8 -- 61
2020-11-10 16:00:00 18.6 13 Nordeste 23 Nordeste 0 979.8 -- 58
2020-11-10 15:00:00 18.5 14 Este 23 Nordeste 0 979.8 -- 59
2020-11-10 14:00:00 17.4 15 Este 23 Este 0 980.4 -- 71
2020-11-10 13:00:00 15.8 15 Este 21 Este 0 981.3 -- 80
2020-11-10 12:00:00 12.9 9 Este 21 Este 0 981.9 -- 93
2020-11-10 11:00:00 10.8 13 Este 20 Este 0 982.1 -- 93
2020-11-10 10:00:00 10.4 14 Este 17 Este 0 981.9 -- 93
2020-11-10 09:00:00 10.1 11 Nordeste 15 Este 0 981.6 -- 93
2020-11-10 08:00:00 9.4 9 Este 14 Este 0 981.2 -- 93
2020-11-10 07:00:00 8 5 Este 8 Este 0 980.8 -- 92
2020-11-10 06:00:00 8 2 Norte 10 Sudeste 0 980.5 -- 92
2020-11-10 05:00:00 8.2 7 Este 9 Este 0 980.3 -- 92
2020-11-10 04:00:00 9.2 6 Este 9 Este 0 980.3 -- 92
2020-11-10 03:00:00 9.6 3 Este 5 Este 0 980.5 -- 90
2020-11-10 02:00:00 10.4 3 Sudeste 5 Este 0 980.5 -- 90
2020-11-10 01:00:00 11.2 3 Sur 9 Este 0 980.7 -- 89
2020-11-10 00:00:00 11.8 2 Sudeste 7 Sudeste 0 980.7 -- 88
2020-11-09 23:00:00 13 6 Este 9 Sudeste 0 980.7 -- 85
2020-11-09 22:00:00 13.9 3 Este 8 Este 0 980.5 -- 78
2020-11-09 21:00:00 14.8 4 Este 8 Nordeste 0 980.2 -- 77
2020-11-09 20:00:00 15 5 Nordeste 9 Nordeste 0 980.1 -- 76
2020-11-09 19:00:00 15.6 7 Oeste 22 Norte 0 979.5 -- 74
2020-11-09 18:00:00 15.9 13 Norte 24 Noroeste 0 979 -- 73
2020-11-09 17:00:00 17.5 15 Oeste 21 Oeste 0 978.6 -- 64
2020-11-09 16:00:00 18 8 Noroeste 16 Sudoeste 0 978.4 -- 61
2020-11-09 15:00:00 19.2 10 Sudoeste 18 Oeste 0 978.3 -- 53
2020-11-09 14:00:00 18.9 6 Sur 16 Sur 0 978.4 -- 58
2020-11-09 13:00:00 18 10 Sudoeste 15 Sudoeste 0 979 -- 67
2020-11-09 12:00:00 16.3 5 Sur 10 Sur 0 979.5 -- 75
2020-11-09 11:00:00 14.7 4 Sur 7 Sur 0 979.5 -- 85
2020-11-09 10:00:00 13.6 2 Sur 6 Este 0 979.4 -- 92
2020-11-09 09:00:00 12.2 4 Nordeste 8 Este 0 978.9 -- 92
2020-11-09 08:00:00 12.1 3 Oeste 6 Oeste 0 977.9 -- 92
2020-11-09 07:00:00 12.6 0 Calma 13 Oeste 0 977.2 -- 91
2020-11-09 06:00:00 12.5 9 Oeste 16 Oeste 0 977 -- 92
2020-11-09 05:00:00 13.2 8 Oeste 11 Noroeste 0.2 976.4 -- 92
2020-11-09 04:00:00 14.1 5 Oeste 12 Sur 0 976.5 -- 92
2020-11-09 03:00:00 14.2 7 Sudoeste 21 Sudoeste 1.6 976.5 -- 91
2020-11-09 02:00:00 14.2 13 Oeste 21 Oeste 1.4 976.1 -- 91
2020-11-09 01:00:00 14.4 12 Oeste 20 Oeste 5.4 976.4 -- 91
2020-11-09 00:00:00 14.9 6 Sudoeste 12 Sudoeste 0 976.4 -- 87
2020-11-08 23:00:00 14.9 5 Sudoeste 20 Sudoeste 0 976.5 -- 86
2020-11-08 22:00:00 15 7 Sudoeste 18 Sudoeste 0 976.3 -- 86
2020-11-08 21:00:00 15 5 Sudoeste 20 Sur 0.2 976.3 -- 86
2020-11-08 20:00:00 15.5 8 Sudoeste 15 Sudoeste 0.2 976.3 -- 84
2020-11-08 19:00:00 15.9 7 Sudoeste 15 Sur 0 975.9 -- 78
2020-11-08 18:00:00 15.8 4 Oeste 10 Oeste 0 975.6 -- 81
2020-11-08 17:00:00 15.8 8 Sudoeste 41 Sudoeste 0 975.6 -- 83
2020-11-08 16:00:00 18 16 Sudoeste 31 Sudoeste 0 975.4 -- 66
2020-11-08 15:00:00 18.8 22 Sudoeste 35 Sur 0 975.4 -- 60
2020-11-08 14:00:00 19.4 14 Sur 36 Sudoeste 0 975.9 -- 64
2020-11-08 13:00:00 18.6 24 Sudoeste 37 Sudoeste 0 976.6 -- 66
2020-11-08 12:00:00 17.9 20 Sudoeste 39 Sudoeste 0 977.3 -- 67
2020-11-08 11:00:00 16.1 9 Sudoeste 16 Sur 0 977.5 -- 77
2020-11-08 10:00:00 14.5 2 Nordeste 12 Sudeste 0 977.7 -- 83
2020-11-08 09:00:00 13 4 Sudeste 12 Este 0 977.4 -- 85
2020-11-08 08:00:00 12.2 9 Este 14 Nordeste 0 976.9 -- 87
2020-11-08 07:00:00 11.8 7 Este 13 Este 0 976.9 -- 87
2020-11-08 06:00:00 12.1 8 Este 13 Nordeste 0 976.8 -- 86
2020-11-08 05:00:00 12.8 6 Este 13 Nordeste 0 976.9 -- 85
2020-11-08 04:00:00 12 6 Este 9 Norte 0 977.1 -- 85
2020-11-08 03:00:00 13.2 6 Nordeste 9 Nordeste 0 977.3 -- 81
2020-11-08 02:00:00 12.9 6 Nordeste 11 Nordeste 0 977.5 -- 80
2020-11-08 01:00:00 13.2 6 Nordeste 15 Nordeste 0 977.9 -- 80
2020-11-08 00:00:00 14 6 Este 13 Sur 0 977.9 -- 79
2020-11-07 23:00:00 14 6 Sur 9 Sur 0 978.2 -- 79
2020-11-07 22:00:00 14.1 4 Sudoeste 14 Sur 0 978 -- 78
2020-11-07 21:00:00 14.6 7 Sur 13 Sur 0 977.8 -- 76
2020-11-07 20:00:00 15.2 6 Sur 18 Sur 0 977.4 -- 72
2020-11-07 19:00:00 16 9 Sur 19 Sur 0 977 -- 67
2020-11-07 18:00:00 16.8 9 Sur 30 Sudoeste 0 976.4 -- 64
2020-11-07 17:00:00 17.3 14 Sudoeste 27 Sudoeste 0 976.1 -- 63
2020-11-07 16:00:00 17.6 14 Sur 31 Sudoeste 0 975.9 -- 64
2020-11-07 15:00:00 18 20 Sudoeste 35 Sudoeste 0 975.8 -- 59
2020-11-07 14:00:00 17.2 22 Sudoeste 38 Sudoeste 0 975.8 -- 63
2020-11-07 13:00:00 17.1 23 Sudoeste 35 Sudoeste 0 975.8 -- 65
2020-11-07 12:00:00 16.6 20 Sudoeste 32 Sudoeste 0 975.7 -- 69
2020-11-07 11:00:00 15.5 19 Sudoeste 30 Sur 0 975.3 -- 78
2020-11-07 10:00:00 14.2 15 Sudoeste 21 Sudoeste 0 974.6 -- 86
2020-11-07 09:00:00 12.2 10 Sudoeste 18 Sudoeste 0 973.4 -- 91
2020-11-07 08:00:00 12 11 Sudoeste 17 Sudoeste 0 971.9 -- 90
2020-11-07 07:00:00 12.2 6 Sudoeste 19 Sudoeste 0.6 970.8 -- 89
2020-11-07 06:00:00 12.4 8 Sudoeste 21 Sudoeste 0.2 969.6 -- 87
2020-11-07 05:00:00 12.8 6 Sudoeste 15 Oeste 0.2 968.7 -- 87
2020-11-07 04:00:00 12.6 9 Sudoeste 16 Sur 0 968.2 -- 85
2020-11-07 03:00:00 12.8 5 Sur 21 Sudoeste 0 967.9 -- 82
2020-11-07 02:00:00 12.8 9 Sur 25 Sur 0.2 967.4 -- 83
2020-11-07 01:00:00 12.8 5 Oeste 15 Sur 0.6 967.4 -- 88
2020-11-07 00:00:00 12.9 11 Sudoeste 33 Oeste 2.6 968.1 -- 89
2020-11-06 23:00:00 14 7 Nordeste 20 Nordeste 0.8 967.7 -- 80
2020-11-06 22:00:00 14.9 5 Nordeste 19 Sur 0 967.3 -- 69
2020-11-06 21:00:00 14.4 8 Sudeste 14 Sudeste 0 967.5 -- 71
2020-11-06 20:00:00 13.9 8 Sur 15 Sur 0.2 967.5 -- 77
2020-11-06 19:00:00 14 10 Sur 18 Sur 0 967.8 -- 77
2020-11-06 18:00:00 13.2 6 Sudoeste 14 Oeste 2.4 967.4 -- 84
2020-11-06 17:00:00 12.9 13 Oeste 79 Sudoeste 0.4 967.6 -- 84
2020-11-06 16:00:00 18.7 19 Sur 35 Sur 0 966.6 -- 57
2020-11-06 15:00:00 19.4 14 Sudeste 29 Este 0 965 -- 57
2020-11-06 14:00:00 19.9 14 Sur 26 Sudoeste 0 965.8 -- 58
2020-11-06 13:00:00 19.3 14 Sudoeste 37 Sudoeste 0 966.6 -- 61
2020-11-06 12:00:00 20.2 24 Sur 44 Sur 0 967.3 -- 53
2020-11-06 11:00:00 19.6 14 Sur 36 Sudeste 0 967 1.9 50
2020-11-06 10:00:00 18.2 9 Este 24 Nordeste 0 966.2 -- 52
2020-11-06 09:00:00 15.9 17 Nordeste 38 Nordeste 0 965 -- 62
2020-11-06 08:00:00 15.9 28 Nordeste 36 Nordeste 0 965.1 -- 63
2020-11-06 07:00:00 15.8 22 Nordeste 37 Nordeste 0 966.4 -- 66
2020-11-06 06:00:00 16.8 6 Sudeste 18 Norte 0 967.4 -- 59
2020-11-06 05:00:00 16.6 6 Sur 28 Sudeste 0 968.3 -- 61
2020-11-06 04:00:00 17.2 21 Sudeste 40 Sudeste 0 968.1 -- 57
2020-11-06 03:00:00 15.7 9 Este 19 Este 0 968.6 -- 68
2020-11-06 02:00:00 15.3 8 Este 21 Nordeste 0 968.5 -- 70
2020-11-06 01:00:00 15.2 12 Este 17 Sur 0 969 -- 73
2020-11-06 00:00:00 15.7 8 Sudoeste 17 Nordeste 0 969.2 -- 69
2020-11-05 23:00:00 15.3 15 Nordeste 25 Nordeste 0 967.9 -- 72
2020-11-05 22:00:00 15.6 17 Nordeste 35 Este 0 967.7 -- 71
2020-11-05 21:00:00 16.2 24 Este 44 Este 0 967.6 -- 70
2020-11-05 20:00:00 15.8 20 Nordeste 26 Nordeste 0 967.3 -- 76
2020-11-05 19:00:00 16 14 Nordeste 30 Este 0 967.7 -- 71
2020-11-05 18:00:00 17 22 Este 31 Este 0 966.9 -- 65
2020-11-05 17:00:00 17.4 19 Este 40 Este 0 966.7 -- 60
2020-11-05 16:00:00 18.6 25 Sudeste 49 Sudeste 0 966.5 -- 58
2020-11-05 15:00:00 18 31 Este 45 Este 0 966.9 -- 61
2020-11-05 14:00:00 16.5 30 Este 41 Este 0 967.7 -- 68
2020-11-05 13:00:00 15.8 25 Este 43 Sudeste 0 968.7 -- 73
2020-11-05 12:00:00 15.1 22 Este 39 Este 0 968.8 -- 79
2020-11-05 11:00:00 14.5 23 Este 33 Nordeste 0 968.6 -- 84
2020-11-05 10:00:00 13.4 20 Este 30 Este 0 968.6 -- 85
2020-11-05 09:00:00 13.1 16 Nordeste 22 Nordeste 0.2 967.6 -- 86
2020-11-05 08:00:00 12.4 14 Nordeste 19 Nordeste 0.6 966.8 -- 90
2020-11-05 07:00:00 12.1 17 Este 29 Nordeste 0.2 966.3 -- 89
2020-11-05 06:00:00 12.2 21 Nordeste 28 Nordeste 0.8 965.7 -- 88
2020-11-05 05:00:00 12 19 Nordeste 42 Este 1.2 965.9 -- 88
2020-11-05 04:00:00 11.8 31 Nordeste 43 Nordeste 4 966.5 -- 93
2020-11-05 03:00:00 10.8 20 Este 25 Este 2.4 966.6 -- 92
2020-11-05 02:00:00 10.7 15 Este 22 Este 1 966.7 -- 91
2020-11-05 01:00:00 10.7 13 Este 33 Nordeste 6 967.7 -- 90
2020-11-05 00:00:00 10.1 10 Este 21 Sudeste 8 968.4 -- 92
2020-11-04 23:00:00 10.1 12 Este 22 Sur 6.4 968.5 -- 92
2020-11-04 22:00:00 10.6 4 Sudeste 37 Noroeste 12.2 969 -- 86
2020-11-04 21:00:00 11.7 23 Oeste 37 Sudoeste 1.4 968.2 -- 81
2020-11-04 20:00:00 13.6 17 Este 26 Este 0 967.3 -- 81
2020-11-04 19:00:00 13.8 19 Nordeste 26 Nordeste 0 967.5 -- 75
2020-11-04 18:00:00 14.8 10 Norte 16 Oeste 0 967.4 -- 70
2020-11-04 17:00:00 16.1 9 Oeste 17 Oeste 0 967.8 -- 68
2020-11-04 16:00:00 16.9 12 Oeste 26 Oeste 0 967.9 -- 67
2020-11-04 15:00:00 18.2 12 Sudoeste 20 Sudoeste 0 968.5 -- 63
2020-11-04 14:00:00 17.4 10 Sudoeste 15 Sudoeste 0 969.6 -- 68
2020-11-04 13:00:00 16.7 8 Sudoeste 13 Sudoeste 0 970.7 -- 72
2020-11-04 12:00:00 14.6 5 Sur 9 Sur 0 971.7 -- 78
2020-11-04 11:00:00 13.4 4 Sudoeste 11 Sudoeste 0 972.3 -1.1 83
2020-11-04 10:00:00 13.5 3 Este 10 Sur 0 973 -- 87
2020-11-04 09:00:00 11.6 8 Oeste 12 Oeste 0 973.2 -- 90
2020-11-04 08:00:00 10.7 4 Oeste 9 Este 0 973.4 -- 91
2020-11-04 07:00:00 10.9 2 Norte 8 Sudoeste 0 973.7 -- 90
2020-11-04 06:00:00 11 3 Sudoeste 8 Sudoeste 0 974.3 -- 90
2020-11-04 05:00:00 11.1 5 Sudoeste 8 Oeste 0 975 -- 88
2020-11-04 04:00:00 11.7 5 Este 6 Nordeste 0 975.4 -- 87
2020-11-04 03:00:00 11.3 5 Nordeste 9 Este 0 976 -- 89
2020-11-04 02:00:00 11.8 3 Este 5 Oeste 0 976.7 -- 86
2020-11-04 01:00:00 12.3 5 Oeste 8 Este 0 977.4 -- 83
2020-11-04 00:00:00 13.2 5 Este 8 Este 0 977.8 -- 79
2020-11-03 23:00:00 13.8 6 Este 9 Este 0 978.2 -- 76
2020-11-03 22:00:00 15.7 4 Nordeste 8 Este 0 978.7 -- 66
2020-11-03 21:00:00 16 7 Este 22 Norte 0 978.8 -- 66
2020-11-03 20:00:00 16.9 15 Norte 26 Norte 0 979 -- 62
2020-11-03 19:00:00 17.8 8 Este 19 Norte 0 978.8 -- 58
2020-11-03 18:00:00 18.7 12 Norte 16 Norte 0 978.6 -- 60
2020-11-03 17:00:00 20 12 Este 16 Este 0 978.5 -- 65
2020-11-03 16:00:00 20 3 Este 9 Sudeste 0 978.6 -- 72
2020-11-03 15:00:00 20 7 Este 12 Sudeste 0 978.9 -- 74
2020-11-03 14:00:00 18.7 5 Sur 12 Sudoeste 0 979.3 -- 77
2020-11-03 13:00:00 17.2 4 Sudoeste 10 Sudoeste 0 979.6 -- 82
2020-11-03 12:00:00 16 5 Oeste 13 Sur 0 980.2 -- 88
2020-11-03 11:00:00 15.4 10 Este 16 Norte 0 980 -- 87
2020-11-03 10:00:00 14.6 9 Sudoeste 14 Sudoeste 0 979.9 -- 91
2020-11-03 09:00:00 15.2 8 Oeste 12 Noroeste 0 979.5 -- 92
2020-11-03 08:00:00 15.3 7 Norte 15 Noroeste 0 978.4 -- 92
2020-11-03 07:00:00 15.2 4 Este 6 Oeste 0 978.4 -- 91
2020-11-03 06:00:00 15 5 Sudoeste 13 Oeste 0.2 978.7 -- 92
2020-11-03 05:00:00 15.2 3 Nordeste 9 Nordeste 0 978.7 -- 91
2020-11-03 04:00:00 15.8 6 Noroeste 10 Noroeste 0 978.8 -- 91
2020-11-03 03:00:00 15.5 3 Este 11 Noroeste 0 979.1 -- 88
2020-11-03 02:00:00 15.6 3 Noroeste 6 Este 0 979.1 -- 89
2020-11-03 01:00:00 16.4 3 Nordeste 8 Norte 0 979.3 -- 85
2020-11-03 00:00:00 16.6 5 Sudoeste 8 Noroeste 0 979.3 -- 83
2020-11-02 23:00:00 17.3 6 Noroeste 18 Noroeste 0 979.6 -- 80
2020-11-02 22:00:00 17.2 3 Noroeste 8 Noroeste 0 979.3 -- 82
2020-11-02 21:00:00 17.3 4 Sudoeste 16 Norte 0 979.6 -- 83
2020-11-02 20:00:00 17.8 2 Oeste 13 Norte 0 979.2 -- 80
2020-11-02 19:00:00 18.2 5 Norte 13 Noroeste 0 978.8 -- 79
2020-11-02 18:00:00 18.4 5 Sudoeste 15 Oeste 0 978.3 -- 82
2020-11-02 17:00:00 19 8 Sudoeste 11 Sudoeste 0 978.1 -- 80
2020-11-02 16:00:00 20 5 Sudoeste 8 Sudoeste 0 978 -- 73
2020-11-02 15:00:00 20.6 3 Sudoeste 6 Este 0 978 -- 70
2020-11-02 14:00:00 20.1 2 Nordeste 6 Oeste 0 978.6 -- 70
2020-11-02 13:00:00 18.5 3 Oeste 6 Noroeste 0 979.2 -- 76
2020-11-02 12:00:00 17.1 3 Este 7 Este 0 979.8 -- 80
2020-11-02 11:00:00 15.4 5 Este 8 Este 0 979.9 -- 84
2020-11-02 10:00:00 15.5 3 Este 7 Este 0 979.8 -- 84
2020-11-02 09:00:00 12.4 4 Este 7 Este 0 979.2 -- 90
2020-11-02 08:00:00 11.5 3 Sudeste 6 Nordeste 0 978.8 -- 91
2020-11-02 07:00:00 11.7 0 Calma 13 Este 0 978.6 -- 91
2020-11-02 06:00:00 11.8 9 Este 14 Este 0 978.6 -- 92
2020-11-02 05:00:00 11.5 3 Norte 7 Sudoeste 0 978.5 -- 92
2020-11-02 04:00:00 12.4 5 Sudoeste 9 Nordeste 0 978.5 -- 91
2020-11-02 03:00:00 12 10 Este 13 Este 0 978.9 -- 90
2020-11-02 02:00:00 13.6 3 Sudeste 7 Nordeste 0 979 -- 88
2020-11-02 01:00:00 13.6 4 Este 6 Este 0 979.4 -- 87
2020-11-02 00:00:00 14.1 5 Este 7 Este 0 979.7 -- 85
2020-11-01 23:00:00 15.4 4 Este 6 Este 0 979.9 -- 83
2020-11-01 22:00:00 15.7 3 Nordeste 6 Nordeste 0 979.9 -- 81
2020-11-01 21:00:00 16.9 4 Nordeste 7 Sudeste 0 979.5 -- 76
2020-11-01 20:00:00 18.7 5 Norte 19 Noroeste 0 979.5 -- 66
2020-11-01 19:00:00 19.2 16 Noroeste 22 Noroeste 0 979.1 -- 66
2020-11-01 18:00:00 20.2 12 Oeste 17 Oeste 0 979 -- 65
2020-11-01 17:00:00 23.6 11 Sudoeste 15 Sudoeste 0 979.1 -- 56
2020-11-01 16:00:00 24.1 2 Sudeste 13 Sudeste 0 979.5 -- 49
2020-11-01 15:00:00 23.3 5 Sudeste 10 Sudeste 0 979.9 -- 52
2020-11-01 14:00:00 21.7 6 Este 14 Este 0 980.4 -- 57
2020-11-01 13:00:00 19.8 8 Este 11 Este 0 981.2 -- 69
2020-11-01 12:00:00 17.5 5 Este 14 Nordeste 0 981.7 -- 75
2020-11-01 11:00:00 15.8 4 Nordeste 15 Este 0 981.9 -- 83
2020-11-01 10:00:00 14.1 8 Este 11 Este 0 981.8 -- 85
2020-11-01 09:00:00 12.4 3 Nordeste 13 Este 0 981.4 -- 91
2020-11-01 08:00:00 10.1 7 Este 10 Este 0 980.9 -- 91
2020-11-01 07:00:00 10.6 3 Sur 8 Sudeste 0 980.7 -- 91
2020-11-01 06:00:00 10.7 5 Sur 8 Sudeste 0 980.8 -- 90
2020-11-01 05:00:00 11.5 0 Calma 10 Este 0 980.6 -- 90
2020-11-01 04:00:00 12.1 6 Este 9 Sudeste 0 980.9 -- 88
2020-11-01 03:00:00 12.2 7 Sudeste 10 Sudeste 0 981.3 -- 86
2020-11-01 02:00:00 13.7 0 Calma 5 Este 0 981.4 -- 80
2020-11-01 01:00:00 14.7 2 Este 7 Sudeste 0 981.6 -- 76
2020-11-01 00:00:00 14.6 4 Este 7 Este 0 982 -- 74
2020-10-31 23:00:00 15.2 4 Sudeste 7 Sudeste 0 981.8 -- 73
2020-10-31 22:00:00 16.6 3 Oeste 10 Norte 0 981.4 -- 66
2020-10-31 21:00:00 17.8 7 Este 15 Este 0 980.9 -- 61
2020-10-31 20:00:00 18.7 3 Norte 13 Noroeste 0 981.3 -- 57
2020-10-31 19:00:00 20.6 10 Noroeste 18 Noroeste 0 980.8 -- 47
2020-10-31 18:00:00 22 13 Oeste 23 Oeste 0 979.9 -- 47
2020-10-31 17:00:00 24.3 17 Oeste 23 Oeste 0 979.7 -- 43
2020-10-31 16:00:00 25.1 6 Sur 14 Sudoeste 0 979.8 -- 46
2020-10-31 15:00:00 25.1 8 Sudoeste 15 Sudoeste 0 980 -- 47
2020-10-31 14:00:00 24.5 6 Sur 15 Sudoeste 0 980.6 -- 45
2020-10-31 13:00:00 22.9 5 Sur 9 Sudoeste 0 981.5 -- 52
2020-10-31 12:00:00 20.9 5 Sudoeste 11 Este 0 981.8 -- 58
2020-10-31 11:00:00 17 6 Este 10 Este 0 981.7 -- 74
2020-10-31 10:00:00 14 3 Sudoeste 9 Sudoeste 0 982.1 -- 83
2020-10-31 09:00:00 11.4 5 Sudeste 10 Sudeste 0 981.9 -- 90
2020-10-31 08:00:00 10.4 3 Este 6 Sudeste 0 980.6 -- 91
2020-10-31 07:00:00 10.9 2 Oeste 10 Este 0 980.4 -- 91
2020-10-31 06:00:00 10.1 5 Este 10 Este 0 980.4 -- 91
2020-10-31 05:00:00 11.4 6 Este 12 Este 0 980.1 -- 89
2020-10-31 04:00:00 11.9 5 Sudeste 9 Este 0 980.1 -- 90
2020-10-31 03:00:00 12.7 6 Oeste 13 Este 0 980.2 -- 87
2020-10-31 02:00:00 12.3 10 Este 13 Este 0 979.9 -- 87
2020-10-31 01:00:00 13.4 2 Nordeste 8 Este 0 980.2 -- 85
2020-10-31 00:00:00 15.3 6 Este 11 Este 0 980.2 -- 77
2020-10-30 23:00:00 15.8 6 Este 8 Este 0 980.1 -- 70
2020-10-30 22:00:00 17.6 3 Sudeste 8 Este 0 980.1 -- 63
2020-10-30 21:00:00 18.4 5 Este 7 Nordeste 0 979.8 -- 60
2020-10-30 20:00:00 19.5 6 Sudeste 9 Sudeste 0 979.5 -- 56
2020-10-30 19:00:00 21.5 2 Sudoeste 8 Sudoeste 0 979.2 -- 49
2020-10-30 18:00:00 23.4 4 Sur 6 Sudoeste 0 978.8 -- 43
2020-10-30 17:00:00 24.8 3 Sur 12 Sudoeste 0 978.8 -- 37
2020-10-30 16:00:00 26.1 6 Sudoeste 11 Sudoeste 0 978.8 -- 32
2020-10-30 15:00:00 26 2 Sudeste 10 Sur 0 979.1 -- 31
2020-10-30 14:00:00 24.5 4 Sudoeste 9 Sudoeste 0 979.6 -- 41
2020-10-30 13:00:00 23.4 2 Este 9 Sudeste 0 980.1 -- 49
2020-10-30 12:00:00 21.1 8 Este 15 Sudeste 0 980.6 -- 57
2020-10-30 11:00:00 18 5 Este 12 Sudeste 0 980.7 -- 68
2020-10-30 10:00:00 13.8 7 Este 14 Sudeste 0 980.8 -- 83
2020-10-30 09:00:00 12 6 Este 13 Este 0 980.4 -- 88
2020-10-30 08:00:00 10.4 6 Este 13 Este 0 979.9 -- 91
2020-10-30 07:00:00 10.3 0 Calma 8 Sudeste 0 979.8 -- 90
2020-10-30 06:00:00 10.9 4 Sudoeste 15 Nordeste 0 979.6 -- 89
2020-10-30 05:00:00 12 9 Este 14 Este 0 979.4 -- 91
2020-10-30 04:00:00 11.7 8 Este 12 Este 0 979.6 -- 88
2020-10-30 03:00:00 12.3 6 Este 10 Este 0 979.7 -- 89
2020-10-30 02:00:00 12.7 8 Este 10 Este 0 980 -- 88
2020-10-30 01:00:00 14.1 4 Este 11 Nordeste 0 980.1 -- 84
2020-10-30 00:00:00 15.1 8 Este 13 Este 0 980.4 -- 83
2020-10-29 23:00:00 16.3 10 Este 18 Nordeste 0 980.5 -- 78
2020-10-29 22:00:00 16.5 9 Este 16 Este 0 980.2 -- 76
2020-10-29 21:00:00 18.3 10 Nordeste 16 Nordeste 0 979.8 -- 68
2020-10-29 20:00:00 19.3 4 Sudeste 14 Nordeste 0 979.7 -- 63
2020-10-29 19:00:00 22.5 3 Nordeste 8 Norte 0 979.1 -- 45
2020-10-29 18:00:00 23.6 6 Norte 8 Norte 0 978.8 -- 46
2020-10-29 17:00:00 25.2 3 Este 10 Nordeste 0 978.9 -- 43
2020-10-29 16:00:00 24.5 6 Este 17 Norte 0 978.8 -- 47
2020-10-29 15:00:00 23.5 11 Nordeste 19 Este 0 979.1 -- 51
2020-10-29 14:00:00 22.5 14 Este 22 Nordeste 0 979.8 -- 56
2020-10-29 13:00:00 21.1 15 Nordeste 26 Nordeste 0 980.5 -- 63
2020-10-29 12:00:00 19.1 22 Nordeste 32 Este 0 981.1 -- 69
2020-10-29 11:00:00 17.3 26 Nordeste 33 Este 0 981.4 -- 76
2020-10-29 10:00:00 15.4 20 Este 27 Este 0 981.5 -- 82
2020-10-29 09:00:00 14 18 Este 23 Este 0 981.1 -- 87
2020-10-29 08:00:00 12.4 15 Este 19 Nordeste 0 980.6 -- 90
2020-10-29 07:00:00 12.8 13 Nordeste 20 Nordeste 0 980.2 -- 90
2020-10-29 06:00:00 12.7 16 Nordeste 21 Este 0 979.8 -- 90
2020-10-29 05:00:00 12.6 14 Este 20 Este 0 979.8 -- 92
2020-10-29 04:00:00 12.2 9 Este 16 Nordeste 0 979.9 -- 89
2020-10-29 03:00:00 14.1 8 Nordeste 13 Nordeste 0 980 -- 87
2020-10-29 02:00:00 14.3 12 Nordeste 15 Nordeste 0 979.9 -- 87
2020-10-29 01:00:00 14.8 10 Nordeste 15 Nordeste 0 980.1 -- 85
2020-10-29 00:00:00 15.1 8 Nordeste 11 Este 0 980 -- 86
2020-10-28 23:00:00 15.7 5 Nordeste 13 Nordeste 0 980.3 -- 83
2020-10-28 22:00:00 16.5 4 Este 9 Nordeste 0 980.5 -- 80
2020-10-28 21:00:00 16.9 3 Noroeste 21 Nordeste 0 980.3 -- 78
2020-10-28 20:00:00 16.5 3 Oeste 23 Oeste 0 979.9 -- 79
2020-10-28 19:00:00 18.1 14 Oeste 19 Oeste 0 979 -- 73
2020-10-28 18:00:00 19.7 0 Calma 5 Sudeste 0 978.4 -- 63
2020-10-28 17:00:00 20.1 2 Sur 10 Sudeste 0 978.4 -- 62
2020-10-28 16:00:00 20 6 Sudeste 17 Sudeste 0 978.3 -- 62
2020-10-28 15:00:00 21.3 5 Sudeste 14 Sudoeste 0 978.4 -- 58
2020-10-28 14:00:00 19.4 4 Sur 14 Sudeste 0 979 -- 62
2020-10-28 13:00:00 18.4 4 Sudeste 10 Este 0 979.5 -- 64
2020-10-28 12:00:00 16.3 4 Nordeste 10 Nordeste 0 979.9 -- 69
2020-10-28 11:00:00 14.9 2 Sudoeste 7 Nordeste 0 979.8 -- 74
2020-10-28 10:00:00 11.4 2 Este 8 Este 0 979.3 -- 87
2020-10-28 09:00:00 8.2 3 Este 6 Sudeste 0 979 -- 91
2020-10-28 08:00:00 7.2 5 Este 6 Oeste 0 978.3 -- 91
2020-10-28 07:00:00 7.6 8 Este 12 Este 0 977.6 -- 92
2020-10-28 06:00:00 7.9 3 Sur 6 Este 0 977.5 -- 91
2020-10-28 05:00:00 7.6 5 Este 8 Este 0 977.2 -- 90
2020-10-28 04:00:00 8.7 3 Este 8 Este 0 977.2 -- 89
2020-10-28 03:00:00 8.5 7 Este 8 Este 0 977.6 -- 89
2020-10-28 02:00:00 9.1 2 Sudeste 5 Sudeste 0 977.7 -- 87
2020-10-28 01:00:00 9.3 4 Sur 8 Este 0 977.8 -- 86
2020-10-28 00:00:00 10.2 2 Sur 6 Este 0 978.1 -- 82
2020-10-27 23:00:00 10.8 4 Este 8 Este 0 978 -- 79
2020-10-27 22:00:00 10.9 4 Nordeste 8 Este 0 977.8 -- 79
2020-10-27 21:00:00 13.3 4 Oeste 7 Oeste 0 977.4 -- 67
2020-10-27 20:00:00 14.5 4 Noroeste 17 Noroeste 0 977.2 -- 62
2020-10-27 19:00:00 14.1 15 Noroeste 22 Oeste 0 977.1 -- 63
2020-10-27 18:00:00 15 10 Oeste 25 Oeste 0 977.1 -- 61
2020-10-27 17:00:00 16.8 17 Sudoeste 27 Oeste 0 976.7 -- 53
2020-10-27 16:00:00 16.9 17 Oeste 28 Oeste 0 976.9 -- 55
2020-10-27 15:00:00 16.8 14 Oeste 27 Oeste 0 977 -- 52
2020-10-27 14:00:00 17.3 14 Oeste 25 Sur 0 977.3 -- 53
2020-10-27 13:00:00 16.3 6 Sudoeste 13 Sudoeste 0 977.9 -- 54
2020-10-27 12:00:00 14.6 4 Sudeste 9 Este 0 978.5 -- 63
2020-10-27 11:00:00 11.5 3 Este 9 Este 0 978.7 -- 80
2020-10-27 10:00:00 7.6 4 Este 8 Este 0 978.8 -- 89
2020-10-27 09:00:00 6.3 2 Este 7 Sudeste 0 978.6 -- 91
2020-10-27 08:00:00 5.6 3 Nordeste 6 Sudoeste 0 978.1 -- 91
2020-10-27 07:00:00 4.9 3 Sur 7 Sudoeste 0 977.9 -- 91
2020-10-27 06:00:00 5.9 4 Este 6 Sudeste 0 977.6 -- 91
2020-10-27 05:00:00 6.2 4 Este 7 Este 0 977.5 -- 90
2020-10-27 04:00:00 6.7 2 Sur 6 Sudoeste 0 977.8 -- 87
2020-10-27 03:00:00 7.8 3 Norte 6 Norte 0 978.2 -- 85
2020-10-27 02:00:00 7.1 3 Noroeste 13 Este 0 978.3 -- 86
2020-10-27 01:00:00 8.8 3 Sudoeste 7 Este 0 978.6 -- 78
2020-10-27 00:00:00 9 4 Sur 7 Este 0 978.7 -- 77